Time;durP1;ratioP1;P1;durP2;ratioP2;P2;SDS_P1;SDS_P2;PMS_P1;PMS_P2;Temp;Humidity;BMP_temperature;BMP_pressure;BME280_temperature;BME280_humidity;BME280_pressure;Samples;Min_cycle;Max_cycle;Signal;HPM_P1;HPM_P2
2022/08/21 00:01:59;;;;;;;;;;;22.80;53.70;;;;;;5021650;28;19929;-76
2022/08/21 00:04:25;;;;;;;;;;;22.80;53.80;;;;;;5023303;28;20692;-75
2022/08/21 00:06:52;;;;;;;;;;;22.70;53.80;;;;;;5022094;28;21084;-75
2022/08/21 00:09:20;;;;;;;;;;;22.70;53.90;;;;;;5022697;28;19926;-75
2022/08/21 00:11:47;;;;;;;;;;;22.70;54.00;;;;;;5020695;28;20805;-76
2022/08/21 00:14:14;;;;;;;;;;;22.70;53.90;;;;;;5020470;28;20610;-75
2022/08/21 00:16:41;;;;;;;;;;;22.60;54.00;;;;;;5020843;28;19944;-77
2022/08/21 00:19:08;;;;;;;;;;;22.60;54.20;;;;;;5023311;28;19929;-75
2022/08/21 00:21:35;;;;;;;;;;;22.50;54.30;;;;;;5024946;28;19933;-76
2022/08/21 00:24:01;;;;;;;;;;;22.50;54.40;;;;;;5018310;28;20504;-76
2022/08/21 00:26:29;;;;;;;;;;;22.50;54.30;;;;;;5019162;28;19940;-75
2022/08/21 00:28:56;;;;;;;;;;;22.40;54.40;;;;;;5020819;28;20157;-76
2022/08/21 00:31:22;;;;;;;;;;;22.40;54.50;;;;;;5019726;28;19947;-75
2022/08/21 00:33:49;;;;;;;;;;;22.40;54.60;;;;;;5020331;28;19951;-76
2022/08/21 00:36:16;;;;;;;;;;;22.30;54.70;;;;;;5020450;28;20408;-75
2022/08/21 00:38:42;;;;;;;;;;;22.30;54.80;;;;;;5024130;28;19952;-76
2022/08/21 00:41:10;;;;;;;;;;;22.30;54.80;;;;;;5020795;28;20004;-75
2022/08/21 00:43:39;;;;;;;;;;;22.30;54.80;;;;;;5019190;28;19930;-76
2022/08/21 00:46:06;;;;;;;;;;;22.20;54.90;;;;;;5018371;28;19933;-75
2022/08/21 00:48:33;;;;;;;;;;;22.20;54.90;;;;;;5023738;28;19929;-75
2022/08/21 00:51:02;;;;;;;;;;;22.20;55.00;;;;;;5023420;28;19937;-75
2022/08/21 00:53:30;;;;;;;;;;;22.20;55.10;;;;;;5022462;28;19929;-75
2022/08/21 00:55:57;;;;;;;;;;;22.10;55.10;;;;;;5019207;28;19933;-75
2022/08/21 00:58:24;;;;;;;;;;;22.10;55.20;;;;;;5022689;28;19929;-75
2022/08/21 01:00:52;;;;;;;;;;;22.00;55.20;;;;;;5018809;28;20484;-74
2022/08/21 01:03:21;;;;;;;;;;;22.00;55.30;;;;;;5020359;28;19937;-76
2022/08/21 01:05:47;;;;;;;;;;;22.00;55.30;;;;;;5020339;28;19929;-73
2022/08/21 01:08:16;;;;;;;;;;;22.00;55.40;;;;;;5019982;28;20484;-75
2022/08/21 01:10:43;;;;;;;;;;;21.90;55.40;;;;;;5016978;28;19929;-76
2022/08/21 01:13:10;;;;;;;;;;;21.90;55.50;;;;;;5019810;28;19940;-75
2022/08/21 01:15:40;;;;;;;;;;;21.90;55.60;;;;;;5017607;28;19943;-75
2022/08/21 01:18:09;;;;;;;;;;;21.90;55.80;;;;;;5020249;28;19933;-75
2022/08/21 01:20:36;;;;;;;;;;;21.80;55.80;;;;;;5017521;28;19929;-75
2022/08/21 01:23:05;;;;;;;;;;;21.80;55.80;;;;;;5021301;28;19936;-75
2022/08/21 01:25:32;;;;;;;;;;;21.80;55.90;;;;;;5017336;28;19929;-74
2022/08/21 01:28:01;;;;;;;;;;;21.70;56.00;;;;;;5022631;28;19940;-75
2022/08/21 01:30:28;;;;;;;;;;;21.70;56.00;;;;;;5026724;28;19929;-76
2022/08/21 01:32:55;;;;;;;;;;;21.70;55.90;;;;;;5019620;28;20287;-75
2022/08/21 01:35:22;;;;;;;;;;;21.70;56.00;;;;;;5019227;28;19929;-74
2022/08/21 01:37:49;;;;;;;;;;;21.60;56.00;;;;;;5018095;28;19929;-76
2022/08/21 01:40:17;;;;;;;;;;;21.60;56.20;;;;;;5018813;28;19933;-75
2022/08/21 01:42:44;;;;;;;;;;;21.60;56.10;;;;;;5018524;28;20385;-75
2022/08/21 01:45:10;;;;;;;;;;;21.60;56.20;;;;;;5017964;28;19929;-76
2022/08/21 01:47:37;;;;;;;;;;;21.50;56.20;;;;;;5019393;28;20401;-76
2022/08/21 01:50:05;;;;;;;;;;;21.50;56.40;;;;;;5020914;28;19936;-76
2022/08/21 01:52:31;;;;;;;;;;;21.50;56.50;;;;;;5019444;28;19928;-75
2022/08/21 01:54:58;;;;;;;;;;;21.40;56.50;;;;;;5015703;28;19940;-76
2022/08/21 01:57:26;;;;;;;;;;;21.50;56.60;;;;;;5020473;28;19929;-76
2022/08/21 01:59:52;;;;;;;;;;;21.50;56.70;;;;;;5019445;28;19940;-76
2022/08/21 02:02:19;;;;;;;;;;;21.40;56.70;;;;;;5018172;28;19929;-76
2022/08/21 02:04:45;;;;;;;;;;;21.40;56.70;;;;;;5019227;28;19929;-75
2022/08/21 02:07:12;;;;;;;;;;;21.40;56.80;;;;;;5016899;28;19937;-76
2022/08/21 02:09:41;;;;;;;;;;;21.30;56.80;;;;;;5016202;28;19933;-75
2022/08/21 02:12:08;;;;;;;;;;;21.30;56.90;;;;;;5018412;28;20099;-76
2022/08/21 02:14:36;;;;;;;;;;;21.30;57.10;;;;;;5019521;28;19935;-75
2022/08/21 02:17:02;;;;;;;;;;;21.30;57.10;;;;;;5018523;28;19929;-75
2022/08/21 02:19:29;;;;;;;;;;;21.20;57.10;;;;;;5015727;28;19929;-75
2022/08/21 02:21:55;;;;;;;;;;;21.20;57.10;;;;;;5020660;28;19940;-72
2022/08/21 02:24:22;;;;;;;;;;;21.20;57.20;;;;;;5019721;28;19936;-74
2022/08/21 02:26:48;;;;;;;;;;;21.10;57.20;;;;;;5022945;28;19929;-76
2022/08/21 02:29:15;;;;;;;;;;;21.10;57.30;;;;;;5024946;28;19929;-75
2022/08/21 02:31:43;;;;;;;;;;;21.10;57.30;;;;;;5021986;28;19940;-75
2022/08/21 02:34:10;;;;;;;;;;;21.10;57.50;;;;;;5017715;28;20306;-75
2022/08/21 02:36:37;;;;;;;;;;;21.10;57.50;;;;;;5018234;28;19933;-75
2022/08/21 02:39:03;;;;;;;;;;;21.00;57.60;;;;;;5020422;28;19925;-72
2022/08/21 02:41:30;;;;;;;;;;;21.00;57.70;;;;;;5019302;28;19933;-75
2022/08/21 02:43:56;;;;;;;;;;;21.00;57.70;;;;;;5017516;28;19929;-76
2022/08/21 02:46:23;;;;;;;;;;;20.90;57.80;;;;;;5017052;28;19936;-75
2022/08/21 02:48:51;;;;;;;;;;;20.90;57.80;;;;;;5018306;28;19936;-75
2022/08/21 02:51:19;;;;;;;;;;;20.90;57.90;;;;;;5018906;28;19940;-75
2022/08/21 02:53:46;;;;;;;;;;;20.90;58.00;;;;;;5024549;28;19933;-76
2022/08/21 02:56:14;;;;;;;;;;;20.90;58.10;;;;;;5021352;28;19936;-75
2022/08/21 02:58:43;;;;;;;;;;;20.80;58.00;;;;;;5023565;28;19929;-75
2022/08/21 03:01:10;;;;;;;;;;;20.80;58.00;;;;;;5022219;28;19933;-75
2022/08/21 03:03:38;;;;;;;;;;;20.80;58.10;;;;;;5022513;28;19925;-75
2022/08/21 03:06:07;;;;;;;;;;;20.80;58.20;;;;;;5021435;28;19970;-74
2022/08/21 03:08:34;;;;;;;;;;;20.80;58.30;;;;;;5022780;28;19928;-75
2022/08/21 03:11:01;;;;;;;;;;;20.70;58.30;;;;;;5025199;28;19929;-76
2022/08/21 03:13:27;;;;;;;;;;;20.60;58.30;;;;;;5025233;28;19929;-75
2022/08/21 03:15:54;;;;;;;;;;;20.60;58.40;;;;;;5023811;28;20130;-76
2022/08/21 03:18:21;;;;;;;;;;;20.60;58.60;;;;;;5025035;28;19929;-76
2022/08/21 03:20:47;;;;;;;;;;;20.60;58.60;;;;;;5025032;28;20523;-75
2022/08/21 03:23:17;;;;;;;;;;;20.60;58.60;;;;;;5023560;28;19929;-74
2022/08/21 03:25:43;;;;;;;;;;;20.50;58.70;;;;;;5024313;28;19937;-75
2022/08/21 03:28:11;;;;;;;;;;;20.50;58.70;;;;;;5026319;28;19929;-76
2022/08/21 03:30:38;;;;;;;;;;;20.50;58.70;;;;;;5024758;28;19929;-75
2022/08/21 03:33:04;;;;;;;;;;;20.50;58.90;;;;;;5024675;28;19929;-75
2022/08/21 03:35:31;;;;;;;;;;;20.40;58.90;;;;;;5024515;28;19932;-75
2022/08/21 03:37:57;;;;;;;;;;;20.40;59.00;;;;;;5024576;28;19952;-75
2022/08/21 03:40:25;;;;;;;;;;;20.40;59.00;;;;;;5023991;28;19952;-73
2022/08/21 03:42:52;;;;;;;;;;;20.40;59.00;;;;;;5024358;28;20554;-75
2022/08/21 03:45:19;;;;;;;;;;;20.40;59.00;;;;;;5020947;28;19929;-76
2022/08/21 03:47:53;;;;;;;;;;;20.30;59.10;;;;;;5026304;28;20448;-76
2022/08/21 03:50:20;;;;;;;;;;;20.30;59.20;;;;;;5022749;28;19972;-76
2022/08/21 03:52:46;;;;;;;;;;;20.20;59.20;;;;;;5022646;28;19929;-74
2022/08/21 03:55:13;;;;;;;;;;;20.20;59.30;;;;;;5024152;28;19937;-75
2022/08/21 03:57:41;;;;;;;;;;;20.20;59.30;;;;;;5023575;28;19929;-76
2022/08/21 04:00:09;;;;;;;;;;;20.20;59.30;;;;;;5023063;28;19929;-75
2022/08/21 04:02:36;;;;;;;;;;;20.20;59.40;;;;;;5021133;28;19984;-74
2022/08/21 04:05:03;;;;;;;;;;;20.10;59.20;;;;;;5023985;28;19973;-76
2022/08/21 04:07:30;;;;;;;;;;;20.10;59.40;;;;;;5021538;28;19940;-76
2022/08/21 04:09:56;;;;;;;;;;;20.10;59.40;;;;;;5022465;28;20580;-75
2022/08/21 04:12:23;;;;;;;;;;;20.10;59.50;;;;;;5024697;28;19936;-75
2022/08/21 04:14:51;;;;;;;;;;;20.00;59.50;;;;;;5020516;28;19938;-73
2022/08/21 04:17:18;;;;;;;;;;;20.00;59.60;;;;;;5015749;28;20024;-76
2022/08/21 04:19:45;;;;;;;;;;;20.00;59.60;;;;;;5024124;28;19929;-75
2022/08/21 04:22:12;;;;;;;;;;;20.00;59.70;;;;;;5023206;28;19969;-75
2022/08/21 04:24:38;;;;;;;;;;;20.00;59.70;;;;;;5016746;28;19936;-75
2022/08/21 04:27:05;;;;;;;;;;;19.90;59.90;;;;;;5018118;28;19929;-74
2022/08/21 04:29:31;;;;;;;;;;;19.90;59.90;;;;;;5021797;28;19933;-74
2022/08/21 04:31:59;;;;;;;;;;;19.80;59.90;;;;;;5021662;28;19936;-76
2022/08/21 04:34:26;;;;;;;;;;;19.80;59.90;;;;;;5021283;28;19925;-75
2022/08/21 04:36:52;;;;;;;;;;;19.90;60.00;;;;;;5022433;28;19929;-76
2022/08/21 04:39:19;;;;;;;;;;;19.90;60.20;;;;;;5022538;28;19933;-75
2022/08/21 04:41:45;;;;;;;;;;;19.80;60.20;;;;;;5021830;28;19929;-75
2022/08/21 04:44:12;;;;;;;;;;;19.80;60.30;;;;;;5019755;28;19929;-74
2022/08/21 04:46:38;;;;;;;;;;;19.80;60.30;;;;;;5019727;28;19937;-75
2022/08/21 04:49:06;;;;;;;;;;;19.70;60.40;;;;;;5022140;28;19959;-75
2022/08/21 04:51:35;;;;;;;;;;;19.70;60.20;;;;;;5022231;28;19929;-74
2022/08/21 04:54:04;;;;;;;;;;;19.70;60.30;;;;;;5022461;28;19933;-76
2022/08/21 04:56:32;;;;;;;;;;;19.70;60.50;;;;;;5020908;28;19937;-75
2022/08/21 04:59:00;;;;;;;;;;;19.60;60.50;;;;;;5019180;28;20356;-75
2022/08/21 05:01:29;;;;;;;;;;;19.60;60.70;;;;;;5019070;28;20608;-73
2022/08/21 05:03:57;;;;;;;;;;;19.60;60.80;;;;;;5018578;28;19933;-75
2022/08/21 05:06:25;;;;;;;;;;;19.60;60.70;;;;;;5019492;28;20290;-75
2022/08/21 05:08:53;;;;;;;;;;;19.60;60.70;;;;;;5020663;28;20603;-75
2022/08/21 05:11:21;;;;;;;;;;;19.60;60.80;;;;;;5020168;28;19940;-75
2022/08/21 05:13:48;;;;;;;;;;;19.50;60.80;;;;;;5019567;28;20027;-76
2022/08/21 05:16:15;;;;;;;;;;;19.50;60.80;;;;;;5019660;28;20010;-75
2022/08/21 05:18:42;;;;;;;;;;;19.50;60.90;;;;;;5017902;28;19933;-75
2022/08/21 05:21:09;;;;;;;;;;;19.50;61.00;;;;;;5020435;28;19940;-75
2022/08/21 05:23:37;;;;;;;;;;;19.40;61.00;;;;;;5019652;28;19929;-75
2022/08/21 05:26:04;;;;;;;;;;;19.40;61.00;;;;;;5021278;28;20305;-77
2022/08/21 05:28:30;;;;;;;;;;;19.40;61.10;;;;;;5021578;28;20691;-74
2022/08/21 05:30:57;;;;;;;;;;;19.40;61.10;;;;;;5016687;28;20376;-75
2022/08/21 05:33:23;;;;;;;;;;;19.40;61.30;;;;;;5019417;28;19933;-73
2022/08/21 05:35:50;;;;;;;;;;;19.40;61.30;;;;;;5014521;28;19936;-74
2022/08/21 05:38:17;;;;;;;;;;;19.30;61.50;;;;;;5021109;28;19929;-76
2022/08/21 05:40:45;;;;;;;;;;;19.30;61.40;;;;;;5020405;28;19936;-76
2022/08/21 05:43:11;;;;;;;;;;;19.30;61.30;;;;;;5018139;28;20384;-74
2022/08/21 05:45:38;;;;;;;;;;;19.30;61.50;;;;;;5019049;28;19929;-75
2022/08/21 05:48:08;;;;;;;;;;;19.30;61.60;;;;;;5019470;28;19929;-73
2022/08/21 05:50:37;;;;;;;;;;;19.30;61.60;;;;;;5018676;28;20032;-74
2022/08/21 05:53:03;;;;;;;;;;;19.30;61.50;;;;;;5015955;28;19968;-75
2022/08/21 05:55:30;;;;;;;;;;;19.20;61.50;;;;;;5018036;28;19932;-74
2022/08/21 05:57:58;;;;;;;;;;;19.20;61.50;;;;;;5020531;28;19951;-76
2022/08/21 06:00:25;;;;;;;;;;;19.20;61.80;;;;;;5017354;28;21045;-76
2022/08/21 06:02:51;;;;;;;;;;;19.20;61.90;;;;;;5017596;28;20500;-76
2022/08/21 06:05:18;;;;;;;;;;;19.20;61.80;;;;;;5020417;28;19929;-76
2022/08/21 06:07:45;;;;;;;;;;;19.20;62.00;;;;;;5021332;28;19979;-75
2022/08/21 06:10:11;;;;;;;;;;;19.20;61.90;;;;;;5022078;28;19929;-75
2022/08/21 06:12:38;;;;;;;;;;;19.10;61.90;;;;;;5021266;28;19939;-76
2022/08/21 06:15:07;;;;;;;;;;;19.10;62.10;;;;;;5020428;28;19925;-77
2022/08/21 06:17:33;;;;;;;;;;;19.10;62.20;;;;;;5017206;28;19925;-75
2022/08/21 06:20:00;;;;;;;;;;;19.10;62.20;;;;;;5021932;28;20276;-76
2022/08/21 06:22:26;;;;;;;;;;;19.10;62.20;;;;;;5021508;28;19956;-75
2022/08/21 06:24:53;;;;;;;;;;;19.10;62.10;;;;;;5019435;28;20404;-76
2022/08/21 06:27:19;;;;;;;;;;;19.10;62.10;;;;;;5025378;28;19940;-76
2022/08/21 06:29:46;;;;;;;;;;;19.10;62.80;;;;;;5023422;28;19929;-77
2022/08/21 06:32:14;;;;;;;;;;;19.10;62.00;;;;;;5014210;28;19933;-75
2022/08/21 06:34:41;;;;;;;;;;;19.10;61.90;;;;;;5022540;28;19933;-76
2022/08/21 06:37:08;;;;;;;;;;;19.10;62.00;;;;;;5015797;28;20484;-77
2022/08/21 06:39:35;;;;;;;;;;;19.10;62.10;;;;;;5014759;28;19932;-75
2022/08/21 06:42:02;;;;;;;;;;;19.00;62.10;;;;;;5011361;28;19935;-76
2022/08/21 06:44:28;;;;;;;;;;;19.10;62.20;;;;;;5015248;28;19929;-74
2022/08/21 06:46:55;;;;;;;;;;;19.10;62.00;;;;;;5022247;28;19929;-76
2022/08/21 06:49:23;;;;;;;;;;;19.00;61.90;;;;;;5023084;28;19929;-75
2022/08/21 06:51:50;;;;;;;;;;;19.00;61.90;;;;;;5023872;28;19933;-76
2022/08/21 06:54:16;;;;;;;;;;;19.00;61.70;;;;;;5020664;28;19937;-75
2022/08/21 06:56:43;;;;;;;;;;;19.10;61.80;;;;;;5017891;28;19936;-76
2022/08/21 06:59:09;;;;;;;;;;;19.00;61.60;;;;;;5014843;28;19940;-76
2022/08/21 07:01:36;;;;;;;;;;;19.00;61.60;;;;;;5015072;28;19929;-76
2022/08/21 07:04:03;;;;;;;;;;;19.10;61.50;;;;;;5013286;28;19933;-76
2022/08/21 07:06:31;;;;;;;;;;;19.10;61.40;;;;;;5015501;28;20016;-76
2022/08/21 07:08:57;;;;;;;;;;;19.10;61.30;;;;;;5012666;28;20062;-75
2022/08/21 07:11:24;;;;;;;;;;;19.00;61.20;;;;;;5014075;28;19929;-77
2022/08/21 07:13:52;;;;;;;;;;;19.00;61.20;;;;;;5013256;28;19933;-75
2022/08/21 07:16:19;;;;;;;;;;;19.10;61.10;;;;;;5020356;28;19960;-76
2022/08/21 07:18:45;;;;;;;;;;;19.10;61.00;;;;;;5023155;28;20404;-76
2022/08/21 07:21:12;;;;;;;;;;;19.10;60.80;;;;;;5021503;28;19929;-76
2022/08/21 07:23:41;;;;;;;;;;;19.10;60.70;;;;;;5022120;28;19933;-76
2022/08/21 07:26:08;;;;;;;;;;;19.10;60.60;;;;;;5018532;28;19929;-75
2022/08/21 07:28:34;;;;;;;;;;;19.10;60.50;;;;;;5023371;28;19929;-75
2022/08/21 07:31:01;;;;;;;;;;;19.10;60.50;;;;;;5029050;28;19929;-75
2022/08/21 07:33:29;;;;;;;;;;;19.20;60.80;;;;;;5022131;28;20446;-75
2022/08/21 07:35:56;;;;;;;;;;;19.20;60.30;;;;;;5019036;28;19936;-76
2022/08/21 07:38:22;;;;;;;;;;;19.20;60.30;;;;;;5026963;28;19929;-75
2022/08/21 07:40:51;;;;;;;;;;;19.20;60.10;;;;;;5022759;28;19936;-74
2022/08/21 07:43:18;;;;;;;;;;;19.20;60.00;;;;;;5021226;28;19936;-76
2022/08/21 07:45:44;;;;;;;;;;;19.20;60.00;;;;;;5021204;28;19929;-75
2022/08/21 07:48:11;;;;;;;;;;;19.30;60.00;;;;;;5019870;28;19936;-76
2022/08/21 07:50:38;;;;;;;;;;;19.30;59.90;;;;;;5023733;28;19936;-76
2022/08/21 07:53:05;;;;;;;;;;;19.30;59.80;;;;;;5020829;28;20027;-76
2022/08/21 07:55:32;;;;;;;;;;;19.30;59.80;;;;;;5021257;28;19936;-78
2022/08/21 07:58:00;;;;;;;;;;;19.40;59.80;;;;;;5023255;28;20309;-78
2022/08/21 08:00:27;;;;;;;;;;;19.40;59.60;;;;;;5017266;28;20595;-77
2022/08/21 08:02:54;;;;;;;;;;;19.40;59.50;;;;;;5019419;28;19929;-76
2022/08/21 08:05:21;;;;;;;;;;;19.40;59.50;;;;;;5018446;28;19932;-77
2022/08/21 08:07:48;;;;;;;;;;;19.40;59.40;;;;;;5017393;28;20366;-75
2022/08/21 08:10:15;;;;;;;;;;;19.40;59.30;;;;;;5019307;28;20636;-77
2022/08/21 08:12:43;;;;;;;;;;;19.50;59.20;;;;;;5020766;28;19929;-77
2022/08/21 08:15:13;;;;;;;;;;;19.50;59.10;;;;;;5020166;28;19933;-78
2022/08/21 08:17:40;;;;;;;;;;;19.50;59.00;;;;;;5020234;28;19933;-77
2022/08/21 08:20:07;;;;;;;;;;;19.50;58.80;;;;;;5020896;28;19941;-76
2022/08/21 08:22:35;;;;;;;;;;;19.50;58.70;;;;;;5018005;28;19973;-77
2022/08/21 08:25:01;;;;;;;;;;;19.60;58.70;;;;;;5011875;28;19929;-79
2022/08/21 08:27:28;;;;;;;;;;;19.60;58.60;;;;;;5019838;28;19929;-76
2022/08/21 08:29:55;;;;;;;;;;;19.70;58.60;;;;;;5024855;28;19933;-76
2022/08/21 08:32:23;;;;;;;;;;;19.70;58.60;;;;;;5022937;28;19936;-77
2022/08/21 08:34:51;;;;;;;;;;;19.70;58.50;;;;;;5021395;28;19940;-78
2022/08/21 08:37:18;;;;;;;;;;;19.80;58.50;;;;;;5018430;28;20389;-75
2022/08/21 08:39:44;;;;;;;;;;;19.80;58.50;;;;;;5022455;28;20008;-77
2022/08/21 08:42:13;;;;;;;;;;;19.80;58.40;;;;;;5021772;28;20337;-76
2022/08/21 08:44:40;;;;;;;;;;;19.90;58.30;;;;;;5016360;28;20020;-76
2022/08/21 08:47:06;;;;;;;;;;;19.90;58.30;;;;;;5013171;28;19933;-77
2022/08/21 08:49:37;;;;;;;;;;;20.00;58.30;;;;;;5012046;28;19948;-75
2022/08/21 08:52:06;;;;;;;;;;;20.00;58.10;;;;;;5023477;28;19929;-75
2022/08/21 08:54:35;;;;;;;;;;;20.10;58.00;;;;;;5019189;28;20293;-76
2022/08/21 08:57:03;;;;;;;;;;;20.10;57.90;;;;;;5019442;28;19940;-76
2022/08/21 08:59:34;;;;;;;;;;;20.10;57.80;;;;;;5019553;28;19933;-77
2022/08/21 09:02:01;;;;;;;;;;;20.20;57.70;;;;;;5019993;28;19928;-76
2022/08/21 09:04:29;;;;;;;;;;;20.20;57.60;;;;;;5023320;28;19933;-76
2022/08/21 09:07:05;;;;;;;;;;;20.30;57.50;;;;;;5015267;28;19925;-77
2022/08/21 09:09:38;;;;;;;;;;;20.30;57.30;;;;;;5016350;28;19935;-76
2022/08/21 09:12:09;;;;;;;;;;;20.40;57.30;;;;;;5015191;28;19929;-77
2022/08/21 09:14:54;;;;;;;;;;;20.50;57.20;;;;;;5015542;28;19928;-77
2022/08/21 09:17:30;;;;;;;;;;;20.50;57.10;;;;;;5018351;28;19929;-76
2022/08/21 09:20:01;;;;;;;;;;;20.60;56.70;;;;;;5020718;28;19936;-75
2022/08/21 09:22:35;;;;;;;;;;;20.70;56.60;;;;;;5019348;28;19936;-75
2022/08/21 09:25:07;;;;;;;;;;;20.70;56.30;;;;;;5012187;28;19944;-76
2022/08/21 09:27:35;;;;;;;;;;;20.80;56.30;;;;;;5010889;28;19929;-75
2022/08/21 09:30:02;;;;;;;;;;;20.90;56.10;;;;;;5011099;28;19933;-77
2022/08/21 09:32:29;;;;;;;;;;;21.00;55.90;;;;;;5014172;28;19929;-77
2022/08/21 09:34:58;;;;;;;;;;;21.00;55.80;;;;;;5009997;28;19925;-77
2022/08/21 09:37:25;;;;;;;;;;;21.10;55.50;;;;;;5011147;28;19980;-77
2022/08/21 09:39:53;;;;;;;;;;;21.10;55.50;;;;;;5008979;28;20016;-77
2022/08/21 09:42:25;;;;;;;;;;;21.20;55.30;;;;;;5013770;28;19932;-76
2022/08/21 09:45:11;;;;;;;;;;;21.30;55.20;;;;;;5012317;28;19936;-75
2022/08/21 09:47:37;;;;;;;;;;;21.30;55.10;;;;;;5013451;28;19929;-76
2022/08/21 09:50:12;;;;;;;;;;;21.40;55.00;;;;;;5018152;28;19936;-75
2022/08/21 09:52:44;;;;;;;;;;;21.40;54.80;;;;;;5014865;28;20286;-76
2022/08/21 09:57:38;;;;;;;;;;;21.50;54.60;;;;;;5017604;28;20261;-76
2022/08/21 09:58:01;;;;;;;;;;;21.60;54.40;;;;;;5022893;28;20030;-77
2022/08/21 10:00:30;;;;;;;;;;;21.60;54.20;;;;;;5021095;28;23081;-76
2022/08/21 10:03:07;;;;;;;;;;;21.70;54.10;;;;;;5022754;28;19929;-77
2022/08/21 10:05:34;;;;;;;;;;;21.80;54.00;;;;;;5016831;28;20005;-77
2022/08/21 10:08:01;;;;;;;;;;;21.90;53.90;;;;;;5022239;28;19936;-76
2022/08/21 10:10:29;;;;;;;;;;;21.90;53.80;;;;;;5018393;28;19933;-76
2022/08/21 10:12:59;;;;;;;;;;;22.00;53.60;;;;;;5020947;28;19974;-75
2022/08/21 10:15:35;;;;;;;;;;;22.10;53.50;;;;;;5019414;28;19964;-75
2022/08/21 10:18:04;;;;;;;;;;;22.10;53.20;;;;;;5018920;28;20413;-77
2022/08/21 10:20:37;;;;;;;;;;;22.20;52.90;;;;;;5016805;28;19936;-77
2022/08/21 10:23:08;;;;;;;;;;;22.30;52.50;;;;;;5019698;28;19936;-76
2022/08/21 10:25:40;;;;;;;;;;;22.30;52.40;;;;;;5018210;28;19933;-76
2022/08/21 10:28:12;;;;;;;;;;;22.40;52.50;;;;;;5017666;28;19936;-77
2022/08/21 10:30:41;;;;;;;;;;;22.50;52.90;;;;;;5017717;28;19925;-77
2022/08/21 10:33:26;;;;;;;;;;;22.60;52.30;;;;;;5019001;28;19929;-77
2022/08/21 10:35:55;;;;;;;;;;;22.70;52.10;;;;;;5018314;28;19929;-76
2022/08/21 10:38:49;;;;;;;;;;;22.70;51.80;;;;;;5023882;28;20022;-77
2022/08/21 10:41:22;;;;;;;;;;;22.80;51.60;;;;;;4964629;28;19933;-77
2022/08/21 10:43:52;;;;;;;;;;;22.90;51.60;;;;;;5021407;28;19936;-77
2022/08/21 10:46:21;;;;;;;;;;;22.90;51.40;;;;;;5013831;28;19961;-77
2022/08/21 10:48:48;;;;;;;;;;;23.00;51.30;;;;;;5021806;28;20591;-76
2022/08/21 10:51:20;;;;;;;;;;;23.10;51.10;;;;;;5022036;28;19952;-76
2022/08/21 10:53:50;;;;;;;;;;;23.20;51.10;;;;;;5022012;28;19936;-76
2022/08/21 10:56:20;;;;;;;;;;;23.30;51.00;;;;;;5019655;28;19929;-76
2022/08/21 10:58:50;;;;;;;;;;;23.30;50.70;;;;;;5020477;28;20292;-76
2022/08/21 11:01:21;;;;;;;;;;;23.40;50.50;;;;;;5020547;28;20461;-75
2022/08/21 11:03:52;;;;;;;;;;;23.50;50.40;;;;;;5019335;28;19933;-76
2022/08/21 11:06:22;;;;;;;;;;;23.50;50.10;;;;;;5020097;28;19929;-77
2022/08/21 11:08:52;;;;;;;;;;;23.60;50.00;;;;;;5018960;28;19933;-77
2022/08/21 11:11:23;;;;;;;;;;;23.70;49.80;;;;;;5017309;28;20343;-78
2022/08/21 11:13:53;;;;;;;;;;;23.80;50.20;;;;;;5023463;28;19929;-75
2022/08/21 11:16:26;;;;;;;;;;;23.80;49.70;;;;;;5023493;28;19976;-77
2022/08/21 11:18:57;;;;;;;;;;;23.80;49.50;;;;;;5021797;28;19929;-76
2022/08/21 11:21:34;;;;;;;;;;;23.90;49.60;;;;;;5021388;28;20022;-76
2022/08/21 11:24:03;;;;;;;;;;;24.00;49.50;;;;;;5023500;28;19933;-76
2022/08/21 11:26:35;;;;;;;;;;;24.00;49.30;;;;;;5022694;28;19941;-77
2022/08/21 11:29:05;;;;;;;;;;;24.10;49.60;;;;;;5022798;28;19929;-77
2022/08/21 11:31:38;;;;;;;;;;;24.10;48.90;;;;;;5023337;28;19929;-76
2022/08/21 11:34:10;;;;;;;;;;;24.20;48.50;;;;;;5022790;28;19936;-76
2022/08/21 11:36:40;;;;;;;;;;;24.20;48.40;;;;;;5022227;28;19936;-76
2022/08/21 11:39:10;;;;;;;;;;;24.30;48.10;;;;;;5023563;28;20412;-76
2022/08/21 11:41:41;;;;;;;;;;;24.40;48.00;;;;;;5016838;28;19936;-75
2022/08/21 11:44:11;;;;;;;;;;;24.50;47.90;;;;;;5015933;28;19944;-76
2022/08/21 11:46:40;;;;;;;;;;;24.60;47.70;;;;;;5016432;28;19929;-77
2022/08/21 11:49:18;;;;;;;;;;;24.70;47.60;;;;;;5016258;28;19933;-77
2022/08/21 11:51:46;;;;;;;;;;;24.70;47.20;;;;;;5026027;28;19940;-77
2022/08/21 11:54:18;;;;;;;;;;;24.80;47.20;;;;;;5025267;28;19929;-77
2022/08/21 11:56:47;;;;;;;;;;;24.90;47.10;;;;;;5020388;28;20495;-76
2022/08/21 11:59:20;;;;;;;;;;;24.90;47.80;;;;;;5022921;28;20321;-77
2022/08/21 12:01:47;;;;;;;;;;;25.00;47.00;;;;;;5019734;28;21759;-77
2022/08/21 12:04:19;;;;;;;;;;;25.10;46.80;;;;;;5020867;28;19929;-77
2022/08/21 12:06:45;;;;;;;;;;;25.10;46.60;;;;;;5020464;28;19941;-77
2022/08/21 12:09:29;;;;;;;;;;;25.20;46.40;;;;;;5022733;28;21204;-76
2022/08/21 12:12:03;;;;;;;;;;;25.30;46.30;;;;;;5014255;28;19929;-77
2022/08/21 12:14:37;;;;;;;;;;;25.30;46.20;;;;;;5011025;28;19929;-78
2022/08/21 12:17:05;;;;;;;;;;;25.40;45.80;;;;;;5016012;28;19933;-78
2022/08/21 12:19:32;;;;;;;;;;;25.50;45.80;;;;;;5011272;28;19933;-77
2022/08/21 12:22:00;;;;;;;;;;;25.70;45.10;;;;;;5014525;28;19929;-76
2022/08/21 12:24:34;;;;;;;;;;;25.90;44.80;;;;;;5020291;28;19929;-69
2022/08/21 12:27:14;;;;;;;;;;;26.00;44.70;;;;;;5027123;28;19929;-70
2022/08/21 12:29:46;;;;;;;;;;;26.00;45.10;;;;;;5022779;28;19933;-71
2022/08/21 12:32:23;;;;;;;;;;;26.10;45.30;;;;;;5024600;28;19929;-70
2022/08/21 12:34:51;;;;;;;;;;;26.10;44.50;;;;;;5020961;28;20004;-70
2022/08/21 12:37:21;;;;;;;;;;;26.20;44.50;;;;;;5024976;28;19928;-70
2022/08/21 12:39:49;;;;;;;;;;;26.10;44.60;;;;;;5021742;28;20294;-70
2022/08/21 12:42:18;;;;;;;;;;;26.20;43.90;;;;;;5024544;28;19947;-71
2022/08/21 12:44:47;;;;;;;;;;;26.20;44.30;;;;;;5021613;28;19936;-70
2022/08/21 12:47:15;;;;;;;;;;;26.20;44.40;;;;;;5023375;28;19943;-70
2022/08/21 12:49:45;;;;;;;;;;;26.20;44.80;;;;;;5022729;28;19929;-70
2022/08/21 12:52:13;;;;;;;;;;;26.30;44.60;;;;;;5022588;28;20620;-70
2022/08/21 12:54:41;;;;;;;;;;;26.30;44.80;;;;;;5021965;28;19929;-70
2022/08/21 12:57:08;;;;;;;;;;;26.40;44.00;;;;;;5024277;28;19929;-69
2022/08/21 12:59:39;;;;;;;;;;;26.50;43.80;;;;;;5026440;28;19936;-70
2022/08/21 13:02:12;;;;;;;;;;;26.50;44.30;;;;;;5023388;28;19929;-70
2022/08/21 13:04:40;;;;;;;;;;;26.50;44.10;;;;;;5019542;28;20605;-68
2022/08/21 13:07:07;;;;;;;;;;;26.60;43.90;;;;;;5024212;28;20406;-71
2022/08/21 13:09:34;;;;;;;;;;;26.60;44.60;;;;;;5022002;28;20444;-70
2022/08/21 13:12:00;;;;;;;;;;;26.70;44.10;;;;;;5023242;28;19925;-71
2022/08/21 13:14:30;;;;;;;;;;;26.70;43.90;;;;;;5023508;28;20361;-71
2022/08/21 13:16:58;;;;;;;;;;;26.70;44.40;;;;;;5023439;28;19940;-70
2022/08/21 13:19:25;;;;;;;;;;;26.80;45.70;;;;;;5017470;28;19929;-70
2022/08/21 13:21:52;;;;;;;;;;;26.80;43.70;;;;;;5024474;28;20011;-70
2022/08/21 13:24:20;;;;;;;;;;;26.90;43.60;;;;;;5020457;28;20011;-69
2022/08/21 13:26:47;;;;;;;;;;;26.90;43.70;;;;;;5018504;28;20423;-70
2022/08/21 13:29:14;;;;;;;;;;;27.00;43.40;;;;;;5020290;28;20406;-71
2022/08/21 13:31:43;;;;;;;;;;;27.00;43.30;;;;;;5017903;28;19935;-67
2022/08/21 13:34:11;;;;;;;;;;;27.10;42.10;;;;;;5017490;28;19952;-68
2022/08/21 13:36:40;;;;;;;;;;;27.10;42.30;;;;;;5022007;28;19929;-67
2022/08/21 13:39:08;;;;;;;;;;;27.20;42.80;;;;;;5023124;28;19929;-68
2022/08/21 13:41:36;;;;;;;;;;;27.20;43.40;;;;;;5021127;28;19935;-68
2022/08/21 13:44:05;;;;;;;;;;;27.30;43.10;;;;;;5023529;28;19933;-68
2022/08/21 13:46:34;;;;;;;;;;;27.30;42.40;;;;;;5022709;28;20511;-67
2022/08/21 13:49:02;;;;;;;;;;;27.40;42.80;;;;;;5023501;28;19941;-66
2022/08/21 13:51:31;;;;;;;;;;;27.40;42.40;;;;;;5023452;28;19929;-68
2022/08/21 13:53:58;;;;;;;;;;;27.50;41.30;;;;;;5023482;28;20630;-67
2022/08/21 13:56:27;;;;;;;;;;;27.50;40.40;;;;;;5016330;28;21213;-68
2022/08/21 13:58:54;;;;;;;;;;;27.50;42.00;;;;;;5022663;28;20412;-68
2022/08/21 14:01:22;;;;;;;;;;;27.60;41.20;;;;;;5016793;28;20385;-68
2022/08/21 14:03:50;;;;;;;;;;;27.70;40.60;;;;;;5023595;28;19929;-68
2022/08/21 14:06:18;;;;;;;;;;;27.70;40.20;;;;;;5019217;28;19929;-68
2022/08/21 14:08:50;;;;;;;;;;;27.80;40.90;;;;;;5026842;28;19936;-68
2022/08/21 14:11:17;;;;;;;;;;;27.90;41.90;;;;;;5021646;28;19929;-68
2022/08/21 14:13:45;;;;;;;;;;;27.90;41.30;;;;;;5023279;28;19936;-68
2022/08/21 14:16:13;;;;;;;;;;;27.90;40.70;;;;;;5025989;28;19929;-69
2022/08/21 14:18:47;;;;;;;;;;;28.00;41.50;;;;;;5019083;28;20011;-66
2022/08/21 14:21:14;;;;;;;;;;;28.00;40.50;;;;;;5023782;28;19952;-68
2022/08/21 14:23:42;;;;;;;;;;;28.10;39.80;;;;;;5023191;28;19929;-67